sensor_id;sensor_type;location;lat;lon;timestamp;temperature;humidity
75466;HTU21D;64049;46.290;44.240;2023-04-24T00:00:40;9.65;78.37
75466;HTU21D;64049;46.290;44.240;2023-04-24T00:03:06;9.68;78.28
75466;HTU21D;64049;46.290;44.240;2023-04-24T00:05:33;9.72;78.15
75466;HTU21D;64049;46.290;44.240;2023-04-24T00:08:00;9.77;78.02
75466;HTU21D;64049;46.290;44.240;2023-04-24T00:10:26;9.78;77.94
75466;HTU21D;64049;46.290;44.240;2023-04-24T00:12:52;9.80;77.91
75466;HTU21D;64049;46.290;44.240;2023-04-24T00:15:18;9.82;77.89
75466;HTU21D;64049;46.290;44.240;2023-04-24T00:17:44;9.84;77.86
75466;HTU21D;64049;46.290;44.240;2023-04-24T00:20:10;9.88;77.84
75466;HTU21D;64049;46.290;44.240;2023-04-24T00:22:36;9.88;77.85
75466;HTU21D;64049;46.290;44.240;2023-04-24T00:25:02;9.85;77.90
75466;HTU21D;64049;46.290;44.240;2023-04-24T00:27:28;9.83;77.95
75466;HTU21D;64049;46.290;44.240;2023-04-24T00:29:55;9.80;78.05
75466;HTU21D;64049;46.290;44.240;2023-04-24T00:32:21;9.78;78.11
75466;HTU21D;64049;46.290;44.240;2023-04-24T00:34:48;9.75;78.17
75466;HTU21D;64049;46.290;44.240;2023-04-24T00:37:13;9.70;78.29
75466;HTU21D;64049;46.290;44.240;2023-04-24T00:39:50;9.68;78.43
75466;HTU21D;64049;46.290;44.240;2023-04-24T00:42:16;9.67;78.36
75466;HTU21D;64049;46.290;44.240;2023-04-24T00:44:42;9.69;78.37
75466;HTU21D;64049;46.290;44.240;2023-04-24T00:47:09;9.70;78.34
75466;HTU21D;64049;46.290;44.240;2023-04-24T00:49:36;9.72;78.27
75466;HTU21D;64049;46.290;44.240;2023-04-24T00:52:02;9.74;78.24
75466;HTU21D;64049;46.290;44.240;2023-04-24T00:54:33;9.76;78.22
75466;HTU21D;64049;46.290;44.240;2023-04-24T00:56:59;9.77;78.23
75466;HTU21D;64049;46.290;44.240;2023-04-24T00:59:42;9.78;78.30
75466;HTU21D;64049;46.290;44.240;2023-04-24T01:02:09;9.80;78.21
75466;HTU21D;64049;46.290;44.240;2023-04-24T01:04:36;9.83;78.11
75466;HTU21D;64049;46.290;44.240;2023-04-24T01:07:04;9.83;77.92
75466;HTU21D;64049;46.290;44.240;2023-04-24T01:09:40;9.84;77.95
75466;HTU21D;64049;46.290;44.240;2023-04-24T01:12:07;9.88;77.93
75466;HTU21D;64049;46.290;44.240;2023-04-24T01:14:33;9.90;77.92
75466;HTU21D;64049;46.290;44.240;2023-04-24T01:16:59;9.92;77.91
75466;HTU21D;64049;46.290;44.240;2023-04-24T01:19:27;9.93;77.95
75466;HTU21D;64049;46.290;44.240;2023-04-24T01:21:54;9.92;77.98
75466;HTU21D;64049;46.290;44.240;2023-04-24T01:24:23;9.93;78.01
75466;HTU21D;64049;46.290;44.240;2023-04-24T01:26:49;9.93;78.00
75466;HTU21D;64049;46.290;44.240;2023-04-24T01:29:18;9.95;78.02
75466;HTU21D;64049;46.290;44.240;2023-04-24T01:31:44;9.98;77.98
75466;HTU21D;64049;46.290;44.240;2023-04-24T01:34:10;9.99;77.92
75466;HTU21D;64049;46.290;44.240;2023-04-24T01:36:37;9.98;77.92
75466;HTU21D;64049;46.290;44.240;2023-04-24T01:39:03;9.99;77.91
75466;HTU21D;64049;46.290;44.240;2023-04-24T01:41:30;10.00;77.89
75466;HTU21D;64049;46.290;44.240;2023-04-24T01:43:57;10.01;77.89
75466;HTU21D;64049;46.290;44.240;2023-04-24T01:46:24;10.01;77.89
75466;HTU21D;64049;46.290;44.240;2023-04-24T01:48:51;10.04;77.88
75466;HTU21D;64049;46.290;44.240;2023-04-24T01:51:19;10.04;77.82
75466;HTU21D;64049;46.290;44.240;2023-04-24T01:53:45;10.05;77.82
75466;HTU21D;64049;46.290;44.240;2023-04-24T01:56:11;10.05;77.80
75466;HTU21D;64049;46.290;44.240;2023-04-24T01:58:38;10.06;77.79
75466;HTU21D;64049;46.290;44.240;2023-04-24T02:01:06;10.07;77.78
75466;HTU21D;64049;46.290;44.240;2023-04-24T02:03:32;10.08;77.76
75466;HTU21D;64049;46.290;44.240;2023-04-24T02:05:58;10.08;77.76
75466;HTU21D;64049;46.290;44.240;2023-04-24T02:08:25;10.10;77.78
75466;HTU21D;64049;46.290;44.240;2023-04-24T02:10:51;10.11;77.76
75466;HTU21D;64049;46.290;44.240;2023-04-24T02:13:17;10.09;77.76
75466;HTU21D;64049;46.290;44.240;2023-04-24T02:15:42;10.11;77.76
75466;HTU21D;64049;46.290;44.240;2023-04-24T02:18:08;10.10;77.77
75466;HTU21D;64049;46.290;44.240;2023-04-24T02:20:35;10.11;77.78
75466;HTU21D;64049;46.290;44.240;2023-04-24T02:23:01;10.12;77.77
75466;HTU21D;64049;46.290;44.240;2023-04-24T02:25:27;10.14;77.75
75466;HTU21D;64049;46.290;44.240;2023-04-24T02:27:54;10.14;77.72
75466;HTU21D;64049;46.290;44.240;2023-04-24T02:30:20;10.18;77.67
75466;HTU21D;64049;46.290;44.240;2023-04-24T02:32:46;10.18;77.64
75466;HTU21D;64049;46.290;44.240;2023-04-24T02:35:12;10.20;77.60
75466;HTU21D;64049;46.290;44.240;2023-04-24T02:37:45;10.21;77.57
75466;HTU21D;64049;46.290;44.240;2023-04-24T02:40:11;10.22;77.55
75466;HTU21D;64049;46.290;44.240;2023-04-24T02:42:37;10.23;77.53
75466;HTU21D;64049;46.290;44.240;2023-04-24T02:45:03;10.23;77.51
75466;HTU21D;64049;46.290;44.240;2023-04-24T02:47:29;10.24;77.47
75466;HTU21D;64049;46.290;44.240;2023-04-24T02:49:55;10.26;77.44
75466;HTU21D;64049;46.290;44.240;2023-04-24T02:52:21;10.28;77.40
75466;HTU21D;64049;46.290;44.240;2023-04-24T02:54:47;10.29;77.37
75466;HTU21D;64049;46.290;44.240;2023-04-24T02:57:13;10.29;77.32
75466;HTU21D;64049;46.290;44.240;2023-04-24T02:59:41;10.31;77.28
75466;HTU21D;64049;46.290;44.240;2023-04-24T03:02:07;10.34;77.25
75466;HTU21D;64049;46.290;44.240;2023-04-24T03:04:33;10.38;77.25
75466;HTU21D;64049;46.290;44.240;2023-04-24T03:06:59;10.38;77.20
75466;HTU21D;64049;46.290;44.240;2023-04-24T03:09:30;10.41;77.19
75466;HTU21D;64049;46.290;44.240;2023-04-24T03:11:56;10.42;77.14
75466;HTU21D;64049;46.290;44.240;2023-04-24T03:14:24;10.44;77.08
75466;HTU21D;64049;46.290;44.240;2023-04-24T03:16:50;10.45;77.08
75466;HTU21D;64049;46.290;44.240;2023-04-24T03:19:27;10.46;77.08
75466;HTU21D;64049;46.290;44.240;2023-04-24T03:22:02;10.49;77.04
75466;HTU21D;64049;46.290;44.240;2023-04-24T03:24:29;10.48;77.04
75466;HTU21D;64049;46.290;44.240;2023-04-24T03:26:56;10.50;77.04
75466;HTU21D;64049;46.290;44.240;2023-04-24T03:29:52;10.53;76.97
75466;HTU21D;64049;46.290;44.240;2023-04-24T03:32:23;10.56;76.95
75466;HTU21D;64049;46.290;44.240;2023-04-24T03:34:50;10.57;76.95
75466;HTU21D;64049;46.290;44.240;2023-04-24T03:37:16;10.58;76.97
75466;HTU21D;64049;46.290;44.240;2023-04-24T03:39:50;10.62;76.95
75466;HTU21D;64049;46.290;44.240;2023-04-24T03:42:19;10.64;76.95
75466;HTU21D;64049;46.290;44.240;2023-04-24T03:44:50;10.66;76.92
75466;HTU21D;64049;46.290;44.240;2023-04-24T03:47:21;10.68;76.91
75466;HTU21D;64049;46.290;44.240;2023-04-24T03:49:51;10.74;76.92
75466;HTU21D;64049;46.290;44.240;2023-04-24T03:52:18;10.79;76.87
75466;HTU21D;64049;46.290;44.240;2023-04-24T03:54:43;10.83;76.85
75466;HTU21D;64049;46.290;44.240;2023-04-24T03:57:10;10.86;76.89
75466;HTU21D;64049;46.290;44.240;2023-04-24T03:59:42;10.90;76.85
75466;HTU21D;64049;46.290;44.240;2023-04-24T04:02:16;10.95;76.87
75466;HTU21D;64049;46.290;44.240;2023-04-24T04:04:42;10.97;76.87
75466;HTU21D;64049;46.290;44.240;2023-04-24T04:07:09;11.04;76.86
75466;HTU21D;64049;46.290;44.240;2023-04-24T04:09:36;11.09;76.79
75466;HTU21D;64049;46.290;44.240;2023-04-24T04:12:02;11.14;76.71
75466;HTU21D;64049;46.290;44.240;2023-04-24T04:14:29;11.20;76.63
75466;HTU21D;64049;46.290;44.240;2023-04-24T04:16:55;11.26;76.53
75466;HTU21D;64049;46.290;44.240;2023-04-24T04:19:23;11.31;76.48
75466;HTU21D;64049;46.290;44.240;2023-04-24T04:21:50;11.34;76.46
75466;HTU21D;64049;46.290;44.240;2023-04-24T04:24:36;11.33;76.49
75466;HTU21D;64049;46.290;44.240;2023-04-24T04:27:04;11.38;76.55
75466;HTU21D;64049;46.290;44.240;2023-04-24T04:29:39;11.46;76.53
75466;HTU21D;64049;46.290;44.240;2023-04-24T04:32:10;11.56;76.47
75466;HTU21D;64049;46.290;44.240;2023-04-24T04:34:40;11.62;76.40
75466;HTU21D;64049;46.290;44.240;2023-04-24T04:37:07;11.70;76.34
75466;HTU21D;64049;46.290;44.240;2023-04-24T04:40:00;11.73;76.23
75466;HTU21D;64049;46.290;44.240;2023-04-24T04:42:32;11.82;76.17
75466;HTU21D;64049;46.290;44.240;2023-04-24T04:44:58;11.90;76.07
75466;HTU21D;64049;46.290;44.240;2023-04-24T04:47:34;11.99;75.97
75466;HTU21D;64049;46.290;44.240;2023-04-24T04:50:01;12.05;75.79
75466;HTU21D;64049;46.290;44.240;2023-04-24T04:52:31;12.13;75.78
75466;HTU21D;64049;46.290;44.240;2023-04-24T04:55:10;12.19;75.76
75466;HTU21D;64049;46.290;44.240;2023-04-24T04:58:03;12.31;75.66
75466;HTU21D;64049;46.290;44.240;2023-04-24T05:00:29;12.36;75.54
75466;HTU21D;64049;46.290;44.240;2023-04-24T05:03:00;12.44;75.49
75466;HTU21D;64049;46.290;44.240;2023-04-24T05:05:25;12.58;75.31
75466;HTU21D;64049;46.290;44.240;2023-04-24T05:07:52;12.78;74.93
75466;HTU21D;64049;46.290;44.240;2023-04-24T05:10:18;12.96;74.54
75466;HTU21D;64049;46.290;44.240;2023-04-24T05:12:44;13.01;74.35
75466;HTU21D;64049;46.290;44.240;2023-04-24T05:15:10;13.02;74.24
75466;HTU21D;64049;46.290;44.240;2023-04-24T05:17:37;12.87;74.21
75466;HTU21D;64049;46.290;44.240;2023-04-24T05:20:04;12.71;74.35
75466;HTU21D;64049;46.290;44.240;2023-04-24T05:22:33;12.55;74.44
75466;HTU21D;64049;46.290;44.240;2023-04-24T05:24:59;12.42;74.57
75466;HTU21D;64049;46.290;44.240;2023-04-24T05:27:35;12.36;74.60
75466;HTU21D;64049;46.290;44.240;2023-04-24T05:30:06;12.31;74.54
75466;HTU21D;64049;46.290;44.240;2023-04-24T05:32:33;12.30;74.47
75466;HTU21D;64049;46.290;44.240;2023-04-24T05:35:00;12.28;74.43
75466;HTU21D;64049;46.290;44.240;2023-04-24T05:37:26;12.27;74.38
75466;HTU21D;64049;46.290;44.240;2023-04-24T05:39:54;12.26;74.32
75466;HTU21D;64049;46.290;44.240;2023-04-24T05:42:20;12.23;74.30
75466;HTU21D;64049;46.290;44.240;2023-04-24T05:44:46;12.22;74.25
75466;HTU21D;64049;46.290;44.240;2023-04-24T05:47:12;12.25;74.19
75466;HTU21D;64049;46.290;44.240;2023-04-24T05:49:40;12.28;74.12
75466;HTU21D;64049;46.290;44.240;2023-04-24T05:52:07;12.33;74.06
75466;HTU21D;64049;46.290;44.240;2023-04-24T05:54:39;12.43;73.93
75466;HTU21D;64049;46.290;44.240;2023-04-24T05:57:05;12.52;73.84
75466;HTU21D;64049;46.290;44.240;2023-04-24T05:59:47;12.63;73.65
75466;HTU21D;64049;46.290;44.240;2023-04-24T06:02:14;12.66;73.58
75466;HTU21D;64049;46.290;44.240;2023-04-24T06:04:40;12.72;73.55
75466;HTU21D;64049;46.290;44.240;2023-04-24T06:07:07;12.77;73.52
75466;HTU21D;64049;46.290;44.240;2023-04-24T06:09:33;12.85;73.42
75466;HTU21D;64049;46.290;44.240;2023-04-24T06:11:59;12.93;73.35
75466;HTU21D;64049;46.290;44.240;2023-04-24T06:14:33;13.02;73.23
75466;HTU21D;64049;46.290;44.240;2023-04-24T06:17:15;13.15;73.06
75466;HTU21D;64049;46.290;44.240;2023-04-24T06:19:41;13.27;72.92
75466;HTU21D;64049;46.290;44.240;2023-04-24T06:22:07;13.41;72.76
75466;HTU21D;64049;46.290;44.240;2023-04-24T06:24:34;13.64;72.46
75466;HTU21D;64049;46.290;44.240;2023-04-24T06:27:00;13.94;71.90
75466;HTU21D;64049;46.290;44.240;2023-04-24T06:29:27;14.22;71.47
75466;HTU21D;64049;46.290;44.240;2023-04-24T06:31:53;14.47;70.98
75466;HTU21D;64049;46.290;44.240;2023-04-24T06:34:19;14.65;70.61
75466;HTU21D;64049;46.290;44.240;2023-04-24T06:36:46;14.78;70.32
75466;HTU21D;64049;46.290;44.240;2023-04-24T06:39:12;14.87;70.07
75466;HTU21D;64049;46.290;44.240;2023-04-24T06:41:38;14.98;69.80
75466;HTU21D;64049;46.290;44.240;2023-04-24T06:44:05;15.08;69.54
75466;HTU21D;64049;46.290;44.240;2023-04-24T06:46:31;15.19;69.29
75466;HTU21D;64049;46.290;44.240;2023-04-24T06:48:57;15.18;69.05
75466;HTU21D;64049;46.290;44.240;2023-04-24T06:51:24;15.16;69.02
75466;HTU21D;64049;46.290;44.240;2023-04-24T06:53:51;15.02;69.18
75466;HTU21D;64049;46.290;44.240;2023-04-24T06:56:17;14.91;69.33
75466;HTU21D;64049;46.290;44.240;2023-04-24T06:58:47;14.74;69.42
75466;HTU21D;64049;46.290;44.240;2023-04-24T07:01:13;14.56;69.46
75466;HTU21D;64049;46.290;44.240;2023-04-24T07:03:39;14.41;69.65
75466;HTU21D;64049;46.290;44.240;2023-04-24T07:06:05;14.36;69.78
75466;HTU21D;64049;46.290;44.240;2023-04-24T07:08:33;14.29;69.64
75466;HTU21D;64049;46.290;44.240;2023-04-24T07:10:59;14.22;69.55
75466;HTU21D;64049;46.290;44.240;2023-04-24T07:13:25;14.17;69.41
75466;HTU21D;64049;46.290;44.240;2023-04-24T07:15:53;14.12;69.21
75466;HTU21D;64049;46.290;44.240;2023-04-24T07:18:21;14.18;68.98
75466;HTU21D;64049;46.290;44.240;2023-04-24T07:20:47;14.32;68.71
75466;HTU21D;64049;46.290;44.240;2023-04-24T07:23:12;14.53;68.26
75466;HTU21D;64049;46.290;44.240;2023-04-24T07:25:38;14.80;67.66
75466;HTU21D;64049;46.290;44.240;2023-04-24T07:28:05;15.09;67.11
75466;HTU21D;64049;46.290;44.240;2023-04-24T07:30:31;15.28;66.59
75466;HTU21D;64049;46.290;44.240;2023-04-24T07:32:59;15.38;66.35
75466;HTU21D;64049;46.290;44.240;2023-04-24T07:35:26;15.45;66.13
75466;HTU21D;64049;46.290;44.240;2023-04-24T07:37:54;15.49;65.90
75466;HTU21D;64049;46.290;44.240;2023-04-24T07:40:21;15.59;65.81
75466;HTU21D;64049;46.290;44.240;2023-04-24T07:42:47;15.65;65.51
75466;HTU21D;64049;46.290;44.240;2023-04-24T07:45:14;15.63;65.32
75466;HTU21D;64049;46.290;44.240;2023-04-24T07:47:43;15.66;65.16
75466;HTU21D;64049;46.290;44.240;2023-04-24T07:50:11;15.74;65.06
75466;HTU21D;64049;46.290;44.240;2023-04-24T07:52:38;15.85;64.84
75466;HTU21D;64049;46.290;44.240;2023-04-24T07:55:04;15.96;64.60
75466;HTU21D;64049;46.290;44.240;2023-04-24T07:57:30;16.07;64.43
75466;HTU21D;64049;46.290;44.240;2023-04-24T07:59:56;16.21;64.11
75466;HTU21D;64049;46.290;44.240;2023-04-24T08:02:22;16.29;63.86
75466;HTU21D;64049;46.290;44.240;2023-04-24T08:04:54;16.32;63.55
75466;HTU21D;64049;46.290;44.240;2023-04-24T08:07:21;16.54;63.32
75466;HTU21D;64049;46.290;44.240;2023-04-24T08:09:48;16.64;62.85
75466;HTU21D;64049;46.290;44.240;2023-04-24T08:12:14;16.60;62.59
75466;HTU21D;64049;46.290;44.240;2023-04-24T08:14:40;16.70;62.70
75466;HTU21D;64049;46.290;44.240;2023-04-24T08:17:06;16.78;62.31
75466;HTU21D;64049;46.290;44.240;2023-04-24T08:19:32;16.82;62.26
75466;HTU21D;64049;46.290;44.240;2023-04-24T08:21:58;16.86;61.79
75466;HTU21D;64049;46.290;44.240;2023-04-24T08:24:24;16.91;61.99
75466;HTU21D;64049;46.290;44.240;2023-04-24T08:26:49;16.95;61.78
75466;HTU21D;64049;46.290;44.240;2023-04-24T08:29:17;17.01;61.68
75466;HTU21D;64049;46.290;44.240;2023-04-24T08:31:42;17.07;61.75
75466;HTU21D;64049;46.290;44.240;2023-04-24T08:34:09;17.18;61.56
75466;HTU21D;64049;46.290;44.240;2023-04-24T08:36:36;17.21;60.83
75466;HTU21D;64049;46.290;44.240;2023-04-24T08:39:03;17.19;60.77
75466;HTU21D;64049;46.290;44.240;2023-04-24T08:41:30;17.28;60.61
75466;HTU21D;64049;46.290;44.240;2023-04-24T08:43:56;17.36;60.39
75466;HTU21D;64049;46.290;44.240;2023-04-24T08:46:24;17.33;60.20
75466;HTU21D;64049;46.290;44.240;2023-04-24T08:48:53;17.44;60.45
75466;HTU21D;64049;46.290;44.240;2023-04-24T08:51:19;17.76;60.34
75466;HTU21D;64049;46.290;44.240;2023-04-24T08:53:46;18.36;59.47
75466;HTU21D;64049;46.290;44.240;2023-04-24T08:56:12;18.71;58.67
75466;HTU21D;64049;46.290;44.240;2023-04-24T08:58:39;18.91;58.38
75466;HTU21D;64049;46.290;44.240;2023-04-24T09:01:06;18.73;57.50
75466;HTU21D;64049;46.290;44.240;2023-04-24T09:03:33;18.55;57.73
75466;HTU21D;64049;46.290;44.240;2023-04-24T09:06:00;18.38;57.71
75466;HTU21D;64049;46.290;44.240;2023-04-24T09:08:28;18.20;57.39
75466;HTU21D;64049;46.290;44.240;2023-04-24T09:10:54;18.06;57.09
75466;HTU21D;64049;46.290;44.240;2023-04-24T09:13:21;18.11;57.06
75466;HTU21D;64049;46.290;44.240;2023-04-24T09:15:47;18.32;56.87
75466;HTU21D;64049;46.290;44.240;2023-04-24T09:18:13;18.35;55.97
75466;HTU21D;64049;46.290;44.240;2023-04-24T09:21:02;18.36;55.45
75466;HTU21D;64049;46.290;44.240;2023-04-24T09:23:30;18.38;55.29
75466;HTU21D;64049;46.290;44.240;2023-04-24T09:25:57;18.74;55.07
75466;HTU21D;64049;46.290;44.240;2023-04-24T09:28:39;18.74;54.71
75466;HTU21D;64049;46.290;44.240;2023-04-24T09:31:15;18.62;54.71
75466;HTU21D;64049;46.290;44.240;2023-04-24T09:34:04;18.49;54.59
75466;HTU21D;64049;46.290;44.240;2023-04-24T09:36:35;18.58;54.71
75466;HTU21D;64049;46.290;44.240;2023-04-24T09:39:07;18.53;54.46
75466;HTU21D;64049;46.290;44.240;2023-04-24T09:41:54;18.51;54.44
75466;HTU21D;64049;46.290;44.240;2023-04-24T09:44:26;18.51;53.65
75466;HTU21D;64049;46.290;44.240;2023-04-24T09:46:57;18.49;53.59
75466;HTU21D;64049;46.290;44.240;2023-04-24T09:49:25;18.58;53.68
75466;HTU21D;64049;46.290;44.240;2023-04-24T09:51:52;18.68;52.80
75466;HTU21D;64049;46.290;44.240;2023-04-24T09:54:20;18.54;52.60
75466;HTU21D;64049;46.290;44.240;2023-04-24T09:56:50;18.58;52.78
75466;HTU21D;64049;46.290;44.240;2023-04-24T09:59:19;18.71;52.67
75466;HTU21D;64049;46.290;44.240;2023-04-24T10:01:46;18.76;52.13
75466;HTU21D;64049;46.290;44.240;2023-04-24T10:04:21;18.55;52.04
75466;HTU21D;64049;46.290;44.240;2023-04-24T10:06:49;18.44;52.42
75466;HTU21D;64049;46.290;44.240;2023-04-24T10:09:18;18.41;52.83
75466;HTU21D;64049;46.290;44.240;2023-04-24T10:11:48;18.58;52.63
75466;HTU21D;64049;46.290;44.240;2023-04-24T10:14:17;18.47;52.11
75466;HTU21D;64049;46.290;44.240;2023-04-24T10:16:44;18.39;52.46
75466;HTU21D;64049;46.290;44.240;2023-04-24T10:19:13;18.42;52.81
75466;HTU21D;64049;46.290;44.240;2023-04-24T10:21:40;18.50;53.17
75466;HTU21D;64049;46.290;44.240;2023-04-24T10:24:13;18.51;52.95
75466;HTU21D;64049;46.290;44.240;2023-04-24T10:26:40;18.72;52.96
75466;HTU21D;64049;46.290;44.240;2023-04-24T10:29:06;18.94;52.60
75466;HTU21D;64049;46.290;44.240;2023-04-24T10:31:36;19.13;52.43
75466;HTU21D;64049;46.290;44.240;2023-04-24T10:34:03;19.17;51.82
75466;HTU21D;64049;46.290;44.240;2023-04-24T10:36:30;19.07;51.44
75466;HTU21D;64049;46.290;44.240;2023-04-24T10:39:01;19.05;52.17
75466;HTU21D;64049;46.290;44.240;2023-04-24T10:41:30;19.06;52.01
75466;HTU21D;64049;46.290;44.240;2023-04-24T10:44:06;18.96;51.47
75466;HTU21D;64049;46.290;44.240;2023-04-24T10:46:38;18.88;51.53
75466;HTU21D;64049;46.290;44.240;2023-04-24T10:49:08;19.03;50.85
75466;HTU21D;64049;46.290;44.240;2023-04-24T10:51:51;19.28;49.96
75466;HTU21D;64049;46.290;44.240;2023-04-24T10:54:33;19.62;49.79
75466;HTU21D;64049;46.290;44.240;2023-04-24T10:59:44;20.27;48.41
75466;HTU21D;64049;46.290;44.240;2023-04-24T11:02:10;20.50;47.73
75466;HTU21D;64049;46.290;44.240;2023-04-24T11:04:36;20.69;47.79
75466;HTU21D;64049;46.290;44.240;2023-04-24T11:07:03;20.77;46.97
75466;HTU21D;64049;46.290;44.240;2023-04-24T11:09:32;20.78;46.90
75466;HTU21D;64049;46.290;44.240;2023-04-24T11:12:06;20.76;47.18
75466;HTU21D;64049;46.290;44.240;2023-04-24T11:17:32;20.64;46.60
75466;HTU21D;64049;46.290;44.240;2023-04-24T11:20:07;20.68;46.63
75466;HTU21D;64049;46.290;44.240;2023-04-24T11:22:36;20.74;46.75
75466;HTU21D;64049;46.290;44.240;2023-04-24T11:25:03;20.89;46.53
75466;HTU21D;64049;46.290;44.240;2023-04-24T11:27:38;20.92;46.56
75466;HTU21D;64049;46.290;44.240;2023-04-24T11:30:05;20.84;46.08
75466;HTU21D;64049;46.290;44.240;2023-04-24T11:32:39;20.84;46.57
75466;HTU21D;64049;46.290;44.240;2023-04-24T11:37:42;20.85;45.86
75466;HTU21D;64049;46.290;44.240;2023-04-24T11:40:10;20.89;46.35
75466;HTU21D;64049;46.290;44.240;2023-04-24T11:42:38;21.15;46.05
75466;HTU21D;64049;46.290;44.240;2023-04-24T11:45:09;21.21;45.38
75466;HTU21D;64049;46.290;44.240;2023-04-24T11:47:35;21.15;45.38
75466;HTU21D;64049;46.290;44.240;2023-04-24T11:50:03;21.21;45.25
75466;HTU21D;64049;46.290;44.240;2023-04-24T11:52:32;21.44;44.96
75466;HTU21D;64049;46.290;44.240;2023-04-24T11:54:59;21.58;44.80
75466;HTU21D;64049;46.290;44.240;2023-04-24T11:57:25;21.64;43.90
75466;HTU21D;64049;46.290;44.240;2023-04-24T12:00:00;21.58;44.09
75466;HTU21D;64049;46.290;44.240;2023-04-24T12:02:27;21.74;43.19
75466;HTU21D;64049;46.290;44.240;2023-04-24T12:04:53;22.06;42.12
75466;HTU21D;64049;46.290;44.240;2023-04-24T12:07:20;22.55;41.16
75466;HTU21D;64049;46.290;44.240;2023-04-24T12:12:24;23.96;38.49
75466;HTU21D;64049;46.290;44.240;2023-04-24T12:14:56;24.46;37.60
75466;HTU21D;64049;46.290;44.240;2023-04-24T12:17:30;24.78;36.76
75466;HTU21D;64049;46.290;44.240;2023-04-24T12:20:04;24.94;36.05
75466;HTU21D;64049;46.290;44.240;2023-04-24T12:22:49;25.01;35.71
75466;HTU21D;64049;46.290;44.240;2023-04-24T12:25:18;24.94;35.26
75466;HTU21D;64049;46.290;44.240;2023-04-24T12:27:45;25.09;35.03
75466;HTU21D;64049;46.290;44.240;2023-04-24T12:30:15;25.25;34.73
75466;HTU21D;64049;46.290;44.240;2023-04-24T12:32:47;25.51;34.39
75466;HTU21D;64049;46.290;44.240;2023-04-24T12:35:19;25.73;34.08
75466;HTU21D;64049;46.290;44.240;2023-04-24T12:37:46;25.79;33.73
75466;HTU21D;64049;46.290;44.240;2023-04-24T12:40:12;25.51;34.28
75466;HTU21D;64049;46.290;44.240;2023-04-24T12:42:49;25.86;33.72
75466;HTU21D;64049;46.290;44.240;2023-04-24T12:45:16;26.05;33.30
75466;HTU21D;64049;46.290;44.240;2023-04-24T12:47:44;26.23;32.78
75466;HTU21D;64049;46.290;44.240;2023-04-24T12:50:12;26.30;32.99
75466;HTU21D;64049;46.290;44.240;2023-04-24T12:52:38;26.64;32.66
75466;HTU21D;64049;46.290;44.240;2023-04-24T12:55:05;26.99;32.22
75466;HTU21D;64049;46.290;44.240;2023-04-24T12:57:34;26.76;32.32
75466;HTU21D;64049;46.290;44.240;2023-04-24T13:00:01;26.57;32.80
75466;HTU21D;64049;46.290;44.240;2023-04-24T13:02:28;26.12;33.54
75466;HTU21D;64049;46.290;44.240;2023-04-24T13:04:55;25.64;34.46
75466;HTU21D;64049;46.290;44.240;2023-04-24T13:07:21;26.42;33.35
75466;HTU21D;64049;46.290;44.240;2023-04-24T13:09:48;26.76;33.18
75466;HTU21D;64049;46.290;44.240;2023-04-24T13:12:14;26.58;33.18
75466;HTU21D;64049;46.290;44.240;2023-04-24T13:14:40;27.02;32.55
75466;HTU21D;64049;46.290;44.240;2023-04-24T13:17:06;27.30;32.26
75466;HTU21D;64049;46.290;44.240;2023-04-24T13:19:41;26.86;32.65
75466;HTU21D;64049;46.290;44.240;2023-04-24T13:22:08;25.37;34.74
75466;HTU21D;64049;46.290;44.240;2023-04-24T13:24:34;24.16;37.04
75466;HTU21D;64049;46.290;44.240;2023-04-24T13:27:00;23.42;38.80
75466;HTU21D;64049;46.290;44.240;2023-04-24T13:29:27;22.86;40.13
75466;HTU21D;64049;46.290;44.240;2023-04-24T13:31:54;22.44;40.69
75466;HTU21D;64049;46.290;44.240;2023-04-24T13:34:21;22.33;40.73
75466;HTU21D;64049;46.290;44.240;2023-04-24T13:36:47;22.56;40.20
75466;HTU21D;64049;46.290;44.240;2023-04-24T13:39:13;22.22;40.78
75466;HTU21D;64049;46.290;44.240;2023-04-24T13:41:39;21.98;41.27
75466;HTU21D;64049;46.290;44.240;2023-04-24T13:44:05;21.73;41.81
75466;HTU21D;64049;46.290;44.240;2023-04-24T13:46:32;21.45;42.66
75466;HTU21D;64049;46.290;44.240;2023-04-24T13:48:58;21.34;43.15
75466;HTU21D;64049;46.290;44.240;2023-04-24T13:51:27;21.51;42.87
75466;HTU21D;64049;46.290;44.240;2023-04-24T13:53:54;21.82;42.40
75466;HTU21D;64049;46.290;44.240;2023-04-24T13:56:21;22.64;41.00
75466;HTU21D;64049;46.290;44.240;2023-04-24T13:58:48;22.44;40.59
75466;HTU21D;64049;46.290;44.240;2023-04-24T14:01:14;21.91;41.48
75466;HTU21D;64049;46.290;44.240;2023-04-24T14:03:41;21.29;42.38
75466;HTU21D;64049;46.290;44.240;2023-04-24T14:06:08;20.93;42.91
75466;HTU21D;64049;46.290;44.240;2023-04-24T14:08:34;20.68;43.42
75466;HTU21D;64049;46.290;44.240;2023-04-24T14:11:00;20.36;44.12
75466;HTU21D;64049;46.290;44.240;2023-04-24T14:13:26;19.98;45.04
75466;HTU21D;64049;46.290;44.240;2023-04-24T14:15:53;19.61;46.11
75466;HTU21D;64049;46.290;44.240;2023-04-24T14:18:19;19.42;46.99
75466;HTU21D;64049;46.290;44.240;2023-04-24T14:20:45;19.32;47.63
75466;HTU21D;64049;46.290;44.240;2023-04-24T14:23:11;19.24;47.99
75466;HTU21D;64049;46.290;44.240;2023-04-24T14:25:37;19.16;48.31
75466;HTU21D;64049;46.290;44.240;2023-04-24T14:28:03;19.08;48.50
75466;HTU21D;64049;46.290;44.240;2023-04-24T14:30:29;18.99;48.73
75466;HTU21D;64049;46.290;44.240;2023-04-24T14:32:55;18.89;48.93
75466;HTU21D;64049;46.290;44.240;2023-04-24T14:35:21;18.70;49.44
75466;HTU21D;64049;46.290;44.240;2023-04-24T14:37:47;18.50;50.09
75466;HTU21D;64049;46.290;44.240;2023-04-24T14:40:14;18.32;50.63
75466;HTU21D;64049;46.290;44.240;2023-04-24T14:42:40;18.18;50.91
75466;HTU21D;64049;46.290;44.240;2023-04-24T14:45:07;18.07;51.30
75466;HTU21D;64049;46.290;44.240;2023-04-24T14:47:33;17.98;51.46
75466;HTU21D;64049;46.290;44.240;2023-04-24T14:50:04;17.92;51.72
75466;HTU21D;64049;46.290;44.240;2023-04-24T14:52:31;17.87;51.79
75466;HTU21D;64049;46.290;44.240;2023-04-24T14:54:57;17.83;52.00
75466;HTU21D;64049;46.290;44.240;2023-04-24T14:57:23;17.76;52.27
75466;HTU21D;64049;46.290;44.240;2023-04-24T14:59:49;17.79;52.30
75466;HTU21D;64049;46.290;44.240;2023-04-24T15:02:15;17.85;52.24
75466;HTU21D;64049;46.290;44.240;2023-04-24T15:04:41;17.80;52.26
75466;HTU21D;64049;46.290;44.240;2023-04-24T15:07:06;17.61;52.68
75466;HTU21D;64049;46.290;44.240;2023-04-24T15:09:32;17.40;53.12
75466;HTU21D;64049;46.290;44.240;2023-04-24T15:11:59;17.22;53.54
75466;HTU21D;64049;46.290;44.240;2023-04-24T15:14:25;17.09;53.76
75466;HTU21D;64049;46.290;44.240;2023-04-24T15:16:51;16.98;54.02
75466;HTU21D;64049;46.290;44.240;2023-04-24T15:19:19;16.85;54.39